TimeEST,TemperatureF,Dew PointF,Humidity,Sea Level PressureIn,VisibilityMPH,Wind Direction,Wind SpeedMPH,Gust SpeedMPH,PrecipitationIn,Events,Conditions,WindDirDegrees,DateUTC
12:56 AM,43.0,41.0,93,30.27,10.0,Calm,Calm,-,N/A,,Clear,0,2012-11-10 05:56:00
1:56 AM,42.1,39.9,92,30.28,10.0,Calm,Calm,-,N/A,,Clear,0,2012-11-10 06:56:00
2:56 AM,42.1,39.9,92,30.28,9.0,Calm,Calm,-,N/A,,Clear,0,2012-11-10 07:56:00
3:56 AM,41.0,39.0,93,30.28,9.0,Calm,Calm,-,N/A,,Clear,0,2012-11-10 08:56:00
4:56 AM,39.9,37.9,93,30.29,8.0,Calm,Calm,-,N/A,,Clear,0,2012-11-10 09:56:00
5:56 AM,39.9,37.9,93,30.31,9.0,Calm,Calm,-,N/A,,Clear,0,2012-11-10 10:56:00
6:56 AM,39.9,37.0,89,30.32,8.0,Calm,Calm,-,N/A,,Partly Cloudy,0,2012-11-10 11:56:00
7:56 AM,48.0,45.0,89,30.34,10.0,Calm,Calm,-,N/A,,Partly Cloudy,0,2012-11-10 12:56:00
8:56 AM,55.9,48.0,75,30.36,10.0,North,3.5,-,N/A,,Clear,360,2012-11-10 13:56:00
9:56 AM,64.4,48.2,56,30.36,10.0,Variable,3.5,-,N/A,,Partly Cloudy,0,2012-11-10 14:56:00
10:56 AM,68.0,46.9,47,30.36,10.0,East,3.5,-,N/A,,Clear,80,2012-11-10 15:56:00
11:56 AM,71.1,48.9,45,30.34,10.0,East,6.9,-,N/A,,Clear,80,2012-11-10 16:56:00
12:56 PM,72.0,50.0,46,30.31,10.0,East,6.9,-,N/A,,Partly Cloudy,100,2012-11-10 17:56:00
1:56 PM,71.1,53.1,53,30.30,10.0,East,9.2,-,N/A,,Partly Cloudy,90,2012-11-10 18:56:00
2:56 PM,71.1,53.1,53,30.30,10.0,ENE,10.4,-,N/A,,Partly Cloudy,70,2012-11-10 19:56:00
3:56 PM,69.1,53.1,57,30.30,10.0,ENE,9.2,-,N/A,,Partly Cloudy,70,2012-11-10 20:56:00
4:56 PM,66.9,54.0,63,30.30,10.0,ENE,10.4,-,N/A,,Partly Cloudy,70,2012-11-10 21:56:00
5:56 PM,60.1,54.0,80,30.31,10.0,NE,4.6,-,N/A,,Partly Cloudy,50,2012-11-10 22:56:00
6:56 PM,57.9,54.0,87,30.33,10.0,Calm,Calm,-,N/A,,Partly Cloudy,0,2012-11-10 23:56:00
7:56 PM,57.0,55.0,93,30.34,10.0,Calm,Calm,-,N/A,,Scattered Clouds,0,2012-11-11 00:56:00
8:56 PM,57.0,54.0,89,30.34,10.0,Calm,Calm,-,N/A,,Partly Cloudy,0,2012-11-11 01:56:00
9:56 PM,54.0,53.1,97,30.33,7.0,Calm,Calm,-,N/A,,Partly Cloudy,0,2012-11-11 02:56:00
10:56 PM,54.0,52.0,93,30.33,8.0,Calm,Calm,-,N/A,,Scattered Clouds,0,2012-11-11 03:56:00
11:56 PM,55.9,54.0,93,30.33,8.0,Calm,Calm,-,N/A,,Scattered Clouds,0,2012-11-11 04:56:00